Time;durP1;ratioP1;P1;durP2;ratioP2;P2;SDS_P1;SDS_P2;PMS_P1;PMS_P2;Temp;Humidity;BMP_temperature;BMP_pressure;BME280_temperature;BME280_humidity;BME280_pressure;Samples;Min_cycle;Max_cycle;Signal;HPM_P1;HPM_P2
2023/10/27 00:00:15;;;;;;;2.65;0.40;;;10.00;99.90;;;8.83;100.00;99252.31;5966092;23;20018;-83
2023/10/27 00:02:41;;;;;;;1.20;0.30;;;10.00;99.90;;;8.82;100.00;99249.78;5989301;23;20014;-83
2023/10/27 00:05:07;;;;;;;1.52;0.30;;;10.00;99.90;;;8.81;100.00;99246.31;5994815;23;20459;-84
2023/10/27 00:07:38;;;;;;;2.58;0.40;;;10.00;99.90;;;8.80;100.00;99247.25;6009588;23;20467;-84
2023/10/27 00:10:07;;;;;;;6.13;0.50;;;10.00;99.90;;;8.81;100.00;99253.31;6032735;23;20959;-84
2023/10/27 00:12:33;;;;;;;3.65;0.43;;;10.00;99.90;;;8.78;100.00;99251.75;6009647;23;20010;-83
2023/10/27 00:14:59;;;;;;;5.28;0.40;;;10.00;99.90;;;8.77;100.00;99250.06;5966626;23;20022;-83
2023/10/27 00:17:35;;;;;;;4.78;0.50;;;10.00;99.90;;;8.77;100.00;99250.06;6011447;23;20605;-84
2023/10/27 00:20:16;;;;;;;1.80;0.40;;;9.90;99.90;;;8.75;100.00;99251.13;5970472;23;20090;-84
2023/10/27 00:22:44;;;;;;;2.55;0.75;;;9.90;99.90;;;8.74;100.00;99244.16;6044477;23;20069;-84
2023/10/27 00:25:16;;;;;;;4.15;0.65;;;9.90;99.90;;;8.70;100.00;99240.03;6018861;23;20013;-83
2023/10/27 00:27:42;;;;;;;1.55;0.40;;;9.90;99.90;;;8.70;100.00;99245.28;6027662;23;20026;-84
2023/10/27 00:30:09;;;;;;;2.15;0.47;;;;;;;8.70;100.00;99240.03;5988600;23;20010;-83
2023/10/27 00:32:46;;;;;;;13.07;1.58;;;9.90;99.90;;;8.70;100.00;99243.50;6019414;23;20010;-84
2023/10/27 00:35:22;;;;;;;;;;;;;;;;;;;;;
2023/10/27 00:37:48;;;;;;;2.03;0.52;;;9.90;99.90;;;8.65;100.00;99242.97;6024624;23;20986;-83
2023/10/27 00:40:16;;;;;;;2.75;0.82;;;9.80;99.90;;;8.63;100.00;99236.97;6022394;23;20033;-84
2023/10/27 00:42:42;;;;;;;3.25;0.75;;;9.80;99.90;;;8.61;100.00;99238.84;5986845;23;20021;-83
2023/10/27 00:45:08;;;;;;;3.88;0.63;;;9.80;99.90;;;8.56;100.00;99239.13;5995433;23;20007;-83
2023/10/27 00:47:38;;;;;;;0.85;0.50;;;9.70;99.90;;;8.54;100.00;99241.00;5984575;23;20010;-84
2023/10/27 00:50:05;;;;;;;4.82;0.70;;;9.70;99.90;;;8.55;100.00;99244.47;5963249;23;20754;-83
2023/10/27 00:52:31;;;;;;;2.08;0.60;;;9.70;99.90;;;8.51;100.00;99242.97;6034353;23;20016;-83
2023/10/27 00:54:57;;;;;;;5.72;0.60;;;9.70;99.90;;;8.51;100.00;99232.47;5990628;23;20014;-83
2023/10/27 00:57:23;;;;;;;11.00;0.60;;;9.70;99.90;;;8.47;100.00;99225.75;5958764;23;20243;-83
2023/10/27 00:59:55;;;;;;;3.83;0.60;;;9.60;99.90;;;8.47;100.00;99229.22;5972205;23;20022;-83
2023/10/27 01:02:23;;;;;;;3.33;0.50;;;9.60;99.90;;;8.44;100.00;99225.91;6000191;23;20009;-84
2023/10/27 01:04:49;;;;;;;4.18;0.60;;;9.60;99.90;;;8.41;100.00;99221.72;5998502;23;20113;-83
2023/10/27 01:07:16;;;;;;;3.38;0.68;;;9.60;99.90;;;8.39;100.00;99221.75;6017453;23;20010;-84
2023/10/27 01:09:53;;;;;;;3.40;0.50;;;9.60;99.90;;;8.38;100.00;99222.72;5987332;23;20011;-83
2023/10/27 01:12:19;;;;;;;5.78;0.50;;;9.60;99.90;;;8.36;100.00;99215.88;6008978;23;20088;-84
2023/10/27 01:14:45;;;;;;;4.07;0.77;;;9.60;99.90;;;8.32;100.00;99212.59;5987715;23;20022;-83
2023/10/27 01:17:13;;;;;;;1.92;0.60;;;9.50;99.90;;;8.27;100.00;99204.19;5997986;23;20006;-83
2023/10/27 01:19:39;;;;;;;4.57;0.65;;;9.50;99.90;;;8.23;100.00;99197.44;6012637;23;20501;-84
2023/10/27 01:22:05;;;;;;;6.30;0.88;;;9.40;99.90;;;8.21;100.00;99204.56;5989769;23;20028;-84
2023/10/27 01:24:31;;;;;;;4.75;0.63;;;9.40;99.90;;;8.18;100.00;99212.59;6008860;23;20010;-84
2023/10/27 01:26:59;;;;;;;4.88;0.60;;;;;;;8.11;100.00;99198.19;5992810;23;20009;-83
2023/10/27 01:29:32;;;;;;;7.35;0.80;;;9.30;99.90;;;8.01;100.00;99196.13;6050080;23;20070;-84
2023/10/27 01:31:58;;;;;;;3.55;0.80;;;9.20;99.90;;;7.96;100.00;99197.31;6004726;23;20021;-83
2023/10/27 01:34:23;;;;;;;1.40;0.52;;;9.20;99.90;;;7.91;100.00;99197.59;6014632;23;20038;-83
2023/10/27 01:36:49;;;;;;;1.15;0.50;;;9.10;99.90;;;7.91;100.00;99196.75;6002087;23;20030;-83
2023/10/27 01:39:15;;;;;;;4.57;0.70;;;9.10;99.90;;;7.88;100.00;99192.53;6048113;23;20226;-83
2023/10/27 01:41:46;;;;;;;2.28;0.70;;;9.10;99.90;;;7.85;100.00;99181.41;6034871;23;20034;-83
2023/10/27 01:44:19;;;;;;;3.28;0.75;;;9.10;99.90;;;7.82;100.00;99169.34;5985552;23;20966;-84
2023/10/27 01:46:53;;;;;;;6.45;1.00;;;9.00;99.90;;;7.79;100.00;99161.63;5926043;23;20058;-83
2023/10/27 01:49:19;;;;;;;1.15;0.60;;;9.00;99.90;;;7.76;100.00;99161.84;5962834;23;20023;-83
2023/10/27 01:51:45;;;;;;;4.22;0.60;;;9.00;99.90;;;7.74;100.00;99147.97;5901140;23;20382;-83
2023/10/27 01:54:18;;;;;;;2.75;0.70;;;9.00;99.90;;;7.71;100.00;99143.78;5989711;23;20014;-83
2023/10/27 01:56:46;;;;;;;5.38;1.10;;;8.90;99.90;;;7.70;100.00;99151.72;6032592;23;20062;-83
2023/10/27 01:59:14;;;;;;;15.05;1.65;;;;;;;7.69;100.00;99153.50;5988472;23;20081;-84
2023/10/27 02:01:45;;;;;;;3.10;1.00;;;8.90;99.90;;;7.68;100.00;99145.72;6022200;23;20437;-84
2023/10/27 02:04:11;;;;;;;1.60;0.75;;;8.90;99.90;;;7.65;100.00;99145.94;6000803;23;20019;-83
2023/10/27 02:06:37;;;;;;;5.80;0.70;;;8.80;99.90;;;7.64;100.00;99150.28;5961889;23;20447;-83
2023/10/27 02:09:03;;;;;;;5.68;0.75;;;8.80;99.90;;;7.60;100.00;99147.03;5982918;23;20010;-84
2023/10/27 02:11:28;;;;;;;7.43;0.88;;;8.80;99.90;;;7.58;100.00;99148.91;5994845;23;20014;-83
2023/10/27 02:13:54;;;;;;;3.08;0.95;;;9.60;99.90;;;7.55;100.00;99149.06;6028504;23;20406;-83
2023/10/27 02:16:20;;;;;;;3.28;1.10;;;8.80;99.90;;;7.52;100.00;99146.66;6060058;23;20532;-83
2023/10/27 02:18:51;;;;;;;3.78;0.77;;;8.70;99.90;;;7.48;100.00;99131.19;6006070;23;20017;-83
2023/10/27 02:21:17;;;;;;;4.07;0.80;;;8.70;99.90;;;7.44;100.00;99127.91;6003024;23;20067;-83
2023/10/27 02:23:42;;;;;;;2.72;0.60;;;8.70;99.90;;;7.37;100.00;99122.19;6013253;23;20021;-83
2023/10/27 02:26:08;;;;;;;5.60;0.70;;;8.60;99.90;;;7.34;100.00;99126.75;6015429;23;20533;-83
2023/10/27 02:28:41;;;;;;;3.30;0.60;;;8.50;99.90;;;7.29;100.00;99131.44;5962752;23;20069;-84
2023/10/27 02:31:07;;;;;;;1.95;0.75;;;8.50;99.90;;;7.23;100.00;99129.16;5972098;23;20014;-83
2023/10/27 02:33:33;;;;;;;6.32;0.63;;;8.40;99.90;;;7.16;100.00;99120.84;6050447;23;20046;-84
2023/10/27 02:35:59;;;;;;;7.13;1.10;;;8.40;99.90;;;7.10;100.00;99122.03;5985052;23;20019;-83
2023/10/27 02:38:24;;;;;;;3.63;0.93;;;8.40;99.90;;;7.08;100.00;99120.44;6006019;23;20010;-84
2023/10/27 02:40:50;;;;;;;2.22;0.75;;;8.30;99.90;;;7.01;100.00;99114.72;6062349;23;20073;-83
2023/10/27 02:43:23;;;;;;;2.50;0.47;;;;;;;6.95;100.00;99112.44;5975789;23;20386;-82
2023/10/27 02:46:03;;;;;;;0.95;0.50;;;8.20;99.90;;;6.90;100.00;99104.84;6011141;23;20356;-83
2023/10/27 02:48:29;;;;;;;3.40;0.98;;;8.10;99.90;;;6.84;100.00;99102.59;6014616;23;20020;-83
2023/10/27 02:50:55;;;;;;;3.63;1.10;;;8.10;99.90;;;6.81;100.00;99099.31;6019843;23;20033;-83
2023/10/27 02:53:20;;;;;;;3.67;0.68;;;8.10;99.90;;;6.74;100.00;99102.28;6022290;23;20018;-83
2023/10/27 02:55:46;;;;;;;2.92;0.70;;;8.00;99.90;;;6.74;100.00;99104.06;6033715;23;20044;-83
2023/10/27 02:58:12;;;;;;;2.65;0.77;;;8.00;99.90;;;6.73;100.00;99112.81;5976567;23;20014;-83
2023/10/27 03:00:46;;;;;;;4.22;1.02;;;8.00;99.90;;;6.73;100.00;99110.22;6007250;23;20014;-83
2023/10/27 03:03:12;;;;;;;2.85;0.70;;;8.00;99.90;;;6.69;100.00;99112.16;5974886;23;20041;-85
2023/10/27 03:05:37;;;;;;;3.30;0.80;;;8.00;99.90;;;6.70;100.00;99124.31;5980869;23;20065;-83
2023/10/27 03:08:03;;;;;;;4.30;0.98;;;8.00;99.90;;;6.71;100.00;99115.53;5979327;23;20022;-84
2023/10/27 03:10:38;;;;;;;10.27;1.30;;;8.00;99.90;;;6.75;100.00;99119.66;6048451;23;20010;-84
2023/10/27 03:13:08;;;;;;;3.67;0.70;;;8.00;99.90;;;6.77;100.00;99117.78;6013902;23;20018;-83
2023/10/27 03:15:41;;;;;;;2.50;1.08;;;8.00;99.90;;;6.82;100.00;99108.84;5944889;23;20031;-83
2023/10/27 03:18:07;;;;;;;2.42;0.50;;;8.10;99.90;;;6.80;100.00;99101.06;6019980;23;20164;-83
2023/10/27 03:20:35;;;;;;;0.85;0.47;;;8.00;99.90;;;6.81;100.00;99109.78;5934698;23;20022;-84
2023/10/27 03:23:05;;;;;;;4.97;0.70;;;8.10;99.90;;;6.82;100.00;99109.69;5956827;23;20018;-83
2023/10/27 03:25:31;;;;;;;2.33;0.70;;;8.10;99.90;;;6.87;100.00;99117.25;5946275;23;20075;-84
2023/10/27 03:27:57;;;;;;;1.50;0.70;;;8.10;99.90;;;6.88;100.00;99117.19;5965941;23;20060;-83
2023/10/27 03:30:23;;;;;;;2.35;0.85;;;8.10;99.90;;;6.88;100.00;99113.72;5973170;23;20007;-83
2023/10/27 03:32:49;;;;;;;8.70;1.40;;;;;;;6.92;100.00;99126.53;5982588;23;20007;-83
2023/10/27 03:35:15;;;;;;;2.38;1.33;;;8.20;99.90;;;6.95;100.00;99120.28;6027791;23;20030;-83
2023/10/27 03:37:48;;;;;;;3.58;0.82;;;8.20;99.90;;;7.00;100.00;99128.75;6002462;23;20051;-83
2023/10/27 03:40:16;;;;;;;1.17;0.70;;;8.30;99.90;;;7.03;100.00;99120.69;5989917;23;20021;-84
2023/10/27 03:42:42;;;;;;;0.60;0.60;;;8.30;99.90;;;7.07;100.00;99119.59;5993474;23;20040;-84
2023/10/27 03:45:08;;;;;;;4.45;1.02;;;8.30;99.90;;;7.10;100.00;99123.81;6002793;23;20013;-84
2023/10/27 03:47:41;;;;;;;1.48;0.70;;;8.30;99.90;;;7.13;100.00;99129.72;6024232;23;20013;-83
2023/10/27 03:50:07;;;;;;;3.95;0.80;;;8.40;99.90;;;7.17;100.00;99130.38;6009115;23;20014;-83
2023/10/27 03:52:32;;;;;;;2.88;0.70;;;8.40;99.90;;;7.18;100.00;99125.03;5988327;23;20018;-83
2023/10/27 03:54:58;;;;;;;5.68;0.77;;;8.40;99.90;;;7.22;100.00;99133.56;6016221;23;20010;-82
2023/10/27 03:57:32;;;;;;;6.68;0.90;;;8.50;99.90;;;7.24;100.00;99133.50;6014576;23;20010;-85
2023/10/27 03:59:57;;;;;;;2.40;0.77;;;8.50;99.90;;;7.28;100.00;99142.81;6005562;23;20089;-84
2023/10/27 04:02:23;;;;;;;3.17;0.70;;;8.50;99.90;;;7.26;100.00;99147.34;5955834;23;20554;-83
2023/10/27 04:04:49;;;;;;;4.53;1.02;;;8.50;99.90;;;7.31;100.00;99142.66;6009223;23;20014;-84
2023/10/27 04:07:14;;;;;;;3.80;0.98;;;8.50;99.90;;;7.29;100.00;99132.28;6046071;23;20014;-84
2023/10/27 04:09:45;;;;;;;10.65;1.00;;;8.50;99.90;;;7.27;100.00;99135.91;5997816;23;20025;-83
2023/10/27 04:12:13;;;;;;;6.43;0.88;;;8.40;99.90;;;7.28;100.00;99130.59;5987418;23;20128;-84
2023/10/27 04:14:39;;;;;;;8.48;0.77;;;8.50;99.90;;;7.29;100.00;99131.44;5988335;23;20015;-82
2023/10/27 04:17:05;;;;;;;3.20;0.75;;;8.50;99.90;;;7.29;100.00;99116.56;5990807;23;20045;-83
2023/10/27 04:19:38;;;;;;;4.30;0.77;;;8.50;99.90;;;7.32;100.00;99129.50;6031891;23;20033;-83
2023/10/27 04:22:07;;;;;;;6.18;0.95;;;;;;;7.33;100.00;99133.78;6010447;23;20557;-85
2023/10/27 04:24:33;;;;;;;6.20;1.00;;;8.60;99.90;;;7.33;100.00;99133.78;6029900;23;20054;-83
2023/10/27 04:26:58;;;;;;;2.95;0.70;;;8.60;99.90;;;7.35;100.00;99138.94;6002924;23;20462;-83
2023/10/27 04:29:31;;;;;;;3.20;0.80;;;9.80;99.90;;;7.32;100.00;99131.25;6015639;23;20013;-84
2023/10/27 04:31:57;;;;;;;7.78;0.98;;;8.50;99.90;;;7.29;100.00;99124.41;5959369;23;20017;-84
2023/10/27 04:34:25;;;;;;;3.67;0.75;;;8.50;99.90;;;7.30;100.00;99128.75;6024959;23;20015;-83
2023/10/27 04:36:58;;;;;;;2.70;0.80;;;8.50;99.90;;;7.29;100.00;99131.44;6009299;23;20481;-83
2023/10/27 04:39:24;;;;;;;2.78;0.80;;;8.50;99.90;;;7.31;100.00;99137.44;5973584;23;20119;-84
2023/10/27 04:41:49;;;;;;;1.50;0.68;;;8.50;99.90;;;7.30;100.00;99133.09;6002794;23;20015;-83
2023/10/27 04:44:17;;;;;;;6.82;0.60;;;8.50;99.90;;;7.31;100.00;99140.06;6019744;23;20133;-83
2023/10/27 04:46:42;;;;;;;1.05;0.47;;;8.50;99.90;;;7.32;100.00;99137.34;6041621;23;20026;-84
2023/10/27 04:49:13;;;;;;;6.60;0.90;;;8.50;99.90;;;7.35;100.00;99139.78;5985578;23;20021;-83
2023/10/27 04:51:39;;;;;;;6.50;0.77;;;8.60;99.90;;;7.41;100.00;99143.81;6005223;23;21252;-83
2023/10/27 04:54:07;;;;;;;5.78;0.82;;;8.60;99.90;;;7.47;100.00;99145.22;6011694;23;20018;-83
2023/10/27 04:56:33;;;;;;;5.43;0.95;;;8.70;99.90;;;7.49;100.00;99144.19;6027412;23;20085;-84
2023/10/27 04:58:59;;;;;;;2.75;0.70;;;8.70;99.90;;;7.50;100.00;99153.75;6033584;23;20076;-84
2023/10/27 05:01:30;;;;;;;2.97;0.70;;;8.70;99.90;;;7.54;100.00;99160.50;6016155;23;20026;-84
2023/10/27 05:03:56;;;;;;;3.13;0.80;;;8.70;99.90;;;7.53;100.00;99148.31;5994412;23;20014;-83
2023/10/27 05:06:21;;;;;;;3.35;0.55;;;8.80;99.90;;;7.57;100.00;99149.81;6000856;23;20023;-83
2023/10/27 05:08:47;;;;;;;7.68;0.82;;;8.80;99.90;;;7.60;100.00;99157.50;6025060;23;20066;-83
2023/10/27 05:11:13;;;;;;;6.53;0.85;;;8.80;99.90;;;7.64;100.00;99158.16;6028804;23;20454;-81
2023/10/27 05:13:38;;;;;;;3.05;0.65;;;8.80;99.90;;;7.67;100.00;99154.53;5999538;23;20537;-83
2023/10/27 05:16:13;;;;;;;5.90;0.57;;;8.90;99.90;;;7.70;100.00;99162.19;6043751;23;20082;-84
2023/10/27 05:18:39;;;;;;;2.95;0.60;;;;;;;7.70;100.00;99155.19;6003819;23;20057;-83
2023/10/27 05:21:05;;;;;;;4.53;0.90;;;8.90;99.90;;;7.73;100.00;99156.75;6012410;23;20037;-84
2023/10/27 05:23:31;;;;;;;1.38;0.50;;;8.90;99.90;;;7.74;100.00;99154.06;5992642;23;20093;-83
2023/10/27 05:26:07;;;;;;;7.95;0.60;;;9.00;99.90;;;7.77;100.00;99163.50;6055860;23;20442;-83
2023/10/27 05:28:32;;;;;;;;;;;9.00;99.90;;;7.74;100.00;99163.72;6013619;23;20025;-84
2023/10/27 05:30:58;;;;;;;3.27;0.60;;;9.00;99.90;;;7.73;100.00;99162.00;5971962;23;19952;-83
2023/10/27 05:33:24;;;;;;;3.00;0.70;;;9.00;99.90;;;7.76;100.00;99172.31;5997910;23;20475;-84
2023/10/27 05:35:57;;;;;;;5.82;0.60;;;9.00;99.90;;;7.80;100.00;99172.03;5966682;23;20022;-84
2023/10/27 05:38:25;;;;;;;4.03;0.47;;;9.00;99.90;;;7.81;100.00;99165.00;5947205;23;20096;-84
2023/10/27 05:41:02;;;;;;;1.95;0.57;;;9.10;99.90;;;7.86;100.00;99168.22;5978291;23;20072;-83
2023/10/27 05:43:29;;;;;;;4.22;0.60;;;9.10;99.90;;;7.88;100.00;99162.88;6004444;23;20031;-83
2023/10/27 05:46:02;;;;;;;3.08;0.50;;;9.10;99.90;;;7.91;100.00;99171.41;6029524;23;20491;-84
2023/10/27 05:48:28;;;;;;;1.48;0.40;;;9.10;99.90;;;7.94;100.00;99176.44;5983675;23;20471;-83
2023/10/27 05:50:54;;;;;;;2.42;0.40;;;9.20;99.90;;;7.96;100.00;99169.31;5980803;23;20022;-85
2023/10/27 05:53:19;;;;;;;2.38;0.40;;;9.20;99.90;;;8.01;100.00;99176.91;5956086;23;20381;-84
2023/10/27 05:55:45;;;;;;;2.75;0.50;;;9.20;99.90;;;8.04;100.00;99173.28;6029313;23;20053;-84
2023/10/27 05:58:11;;;;;;;4.63;0.70;;;9.30;99.90;;;8.04;100.00;99173.28;5991978;23;20023;-83
2023/10/27 06:00:41;;;;;;;1.67;0.70;;;9.30;99.90;;;8.09;100.00;99179.06;5962666;23;20029;-83
2023/10/27 06:03:07;;;;;;;4.00;0.82;;;9.30;99.90;;;8.12;100.00;99173.63;5979861;23;20034;-84
2023/10/27 06:05:33;;;;;;;6.53;0.70;;;9.30;99.90;;;8.09;100.00;99172.03;5978327;23;20019;-84
2023/10/27 06:07:58;;;;;;;18.75;1.27;;;9.30;99.90;;;8.12;100.00;99171.00;5982346;23;20059;-84
2023/10/27 06:10:27;;;;;;;2.47;0.65;;;9.30;99.90;;;8.13;100.00;99168.31;5994083;23;20014;-84
2023/10/27 06:13:04;;;;;;;2.72;1.17;;;9.30;99.90;;;8.13;100.00;99175.34;6003512;23;20081;-85
2023/10/27 06:15:30;;;;;;;2.50;0.75;;;9.30;99.90;;;8.10;100.00;99179.00;5997092;23;20045;-83
2023/10/27 06:17:55;;;;;;;0.82;0.60;;;9.30;99.90;;;8.11;100.00;99174.59;5977722;23;20022;-84
2023/10/27 06:20:26;;;;;;;1.83;0.70;;;9.40;99.90;;;8.13;100.00;99176.16;5970614;23;20026;-83
2023/10/27 06:22:52;;;;;;;3.17;0.70;;;9.40;99.90;;;8.17;100.00;99184.69;5987216;23;20015;-83
2023/10/27 06:25:18;;;;;;;2.72;0.47;;;9.40;99.90;;;8.15;100.00;99184.78;5992228;23;20069;-84
2023/10/27 06:27:47;;;;;;;1.10;0.50;;;;;;;8.19;100.00;99182.81;5988567;23;20029;-84
2023/10/27 06:30:35;;;;;;;3.60;0.50;;;9.40;99.90;;;8.18;100.00;99183.75;6010996;23;20033;-85
2023/10/27 06:33:01;;;;;;;0.95;0.30;;;9.40;99.90;;;8.19;100.00;99185.44;5932512;23;20015;-84
2023/10/27 06:35:26;;;;;;;2.15;0.40;;;9.40;99.90;;;8.19;100.00;99181.03;5933253;23;20495;-84
2023/10/27 06:37:52;;;;;;;4.20;0.55;;;9.40;99.90;;;8.22;100.00;99187.88;5900568;23;20040;-83
2023/10/27 06:40:18;;;;;;;3.22;0.30;;;9.40;99.90;;;8.23;100.00;99181.72;5906140;23;20015;-86
2023/10/27 06:42:53;;;;;;;1.95;0.60;;;9.50;99.90;;;8.27;100.00;99177.97;5933529;23;20014;-84
2023/10/27 06:45:19;;;;;;;2.95;0.80;;;;;;;8.32;100.00;99186.38;5946396;23;20076;-84
2023/10/27 06:47:45;;;;;;;2.80;1.25;;;;;;;8.35;100.00;99183.56;5954644;23;20369;-84
2023/10/27 06:50:11;;;;;;;1.88;1.10;;;9.90;99.90;;;8.36;100.00;99182.63;5936716;23;20019;-83
2023/10/27 06:52:57;;;;;;;3.72;0.85;;;9.60;99.90;;;8.40;100.00;99180.63;5932471;23;20027;-84
2023/10/27 06:55:28;;;;;;;1.02;0.50;;;;;;;8.40;100.00;99197.28;5884921;23;20062;-85
2023/10/27 06:57:54;;;;;;;1.38;0.50;;;9.60;99.90;;;8.38;100.00;99186.00;5881749;23;20019;-85
2023/10/27 07:00:29;;;;;;;1.08;0.40;;;9.60;99.90;;;8.43;100.00;99198.84;5935866;23;20019;-84
2023/10/27 07:02:57;;;;;;;3.38;0.40;;;9.60;99.90;;;8.43;100.00;99196.22;5900350;23;20153;-85
2023/10/27 07:05:49;;;;;;;0.25;0.20;;;;;;;8.43;100.00;99192.78;5929009;23;20403;-85
2023/10/27 07:08:16;;;;;;;1.35;0.28;;;;;;;8.45;100.00;99201.41;5974873;23;20030;-84
2023/10/27 07:10:44;;;;;;;1.08;0.20;;;9.70;99.90;;;8.46;100.00;99192.56;5999084;23;20011;-84
2023/10/27 07:13:19;;;;;;;0.10;0.10;;;;;;;8.47;100.00;99189.88;5962371;23;20006;-84
2023/10/27 07:15:45;;;;;;;0.22;0.10;;;;;;;8.48;100.00;99193.31;5998959;23;20121;-84
2023/10/27 07:18:11;;;;;;;0.95;0.22;;;;;;;8.51;100.00;99191.34;5999434;23;20064;-84
2023/10/27 07:20:49;;;;;;;2.28;0.60;;;;;;;8.53;100.00;99188.63;5916691;23;20019;-84
2023/10/27 07:23:57;;;;;;;3.53;0.20;;;9.70;99.90;;;8.56;100.00;99198.94;5960756;23;20459;-84
2023/10/27 07:26:36;;;;;;;2.05;0.40;;;9.80;99.90;;;8.61;100.00;99189.81;5950615;23;20027;-84
2023/10/27 07:29:06;;;;;;;0.50;0.30;;;;;;;8.61;100.00;99189.81;5917193;23;20042;-83
2023/10/27 07:31:41;;;;;;;1.40;0.50;;;9.80;99.90;;;8.65;100.00;99193.09;5943687;23;20022;-84
2023/10/27 07:34:07;;;;;;;2.67;0.40;;;9.80;99.90;;;8.66;100.00;99186.06;5878190;23;20021;-84
2023/10/27 07:36:35;;;;;;;2.50;0.30;;;9.90;99.90;;;8.68;100.00;99187.66;5851605;24;20059;-84
2023/10/27 07:39:08;;;;;;;1.10;0.38;;;;;;;8.74;100.00;99191.69;5867850;24;20024;-84
2023/10/27 07:41:35;;;;;;;0.75;0.35;;;;;;;8.80;100.00;99191.28;5851256;24;20069;-85
2023/10/27 07:44:01;;;;;;;4.30;0.32;;;10.00;99.90;;;8.86;100.00;99192.69;5842584;24;20017;-83
2023/10/27 07:46:27;;;;;;;2.45;0.30;;;;;;;8.89;100.00;99195.94;5794151;24;20070;-84
2023/10/27 07:48:59;;;;;;;1.60;0.30;;;;;;;8.92;100.00;99185.28;5847579;24;20021;-84
2023/10/27 07:51:25;;;;;;;1.42;0.60;;;10.10;99.90;;;8.96;100.00;99188.53;5910306;23;20039;-84
2023/10/27 07:53:54;;;;;;;1.58;0.68;;;10.10;99.90;;;8.97;100.00;99187.59;5915726;24;20732;-85
2023/10/27 07:56:29;;;;;;;1.20;0.30;;;10.20;99.90;;;9.00;100.00;99192.63;5888923;23;20029;-84
2023/10/27 07:58:55;;;;;;;1.23;0.50;;;;;;;9.00;100.00;99196.09;5862732;24;20077;-84
2023/10/27 08:01:34;;;;;;;1.50;0.63;;;;;;;9.00;100.00;99192.63;5876053;24;20016;-84
2023/10/27 08:04:02;;;;;;;2.35;0.98;;;10.20;99.90;;;9.01;100.00;99181.22;5889297;24;20403;-84
2023/10/27 08:06:41;;;;;;;1.15;0.80;;;;;;;9.05;100.00;99180.06;5925890;23;20011;-84
2023/10/27 08:09:07;;;;;;;3.03;0.50;;;;;;;9.05;100.00;99182.69;5996198;23;20089;-83
2023/10/27 08:11:59;;;;;;;5.20;0.47;;;10.20;99.90;;;9.09;100.00;99184.16;6010786;23;20022;-85
2023/10/27 08:14:26;;;;;;;2.75;0.45;;;10.30;99.90;;;9.11;100.00;99174.38;6024825;23;20022;-84
2023/10/27 08:16:51;;;;;;;1.30;0.40;;;10.30;99.90;;;9.15;100.00;99170.63;5964083;23;20018;-84
2023/10/27 08:19:26;;;;;;;1.77;0.30;;;;;;;9.16;100.00;99171.50;5954587;23;20576;-83
2023/10/27 08:21:55;;;;;;;0.82;0.20;;;10.40;99.90;;;9.15;100.00;99175.03;6015582;23;20074;-84
2023/10/27 08:24:30;;;;;;;1.25;0.10;;;;;;;9.14;100.00;99170.75;5942734;23;20014;-84
2023/10/27 08:26:56;;;;;;;0.45;0.15;;;;;;;9.15;100.00;99178.50;6017104;23;20025;-83
2023/10/27 08:29:25;;;;;;;3.60;0.25;;;10.30;99.90;;;9.17;100.00;99178.41;5981501;23;20641;-84
2023/10/27 08:32:16;;;;;;;0.95;0.30;;;10.40;99.90;;;9.27;100.00;99173.41;6014833;23;20025;-84
2023/10/27 08:34:42;;;;;;;1.60;0.20;;;;;;;9.34;100.00;99179.94;5865265;24;20035;-85
2023/10/27 08:37:17;;;;;;;0.57;0.20;;;;;;;9.40;100.00;99183.00;5872724;24;20025;-85
2023/10/27 08:39:46;;;;;;;0.43;0.20;;;;;;;9.47;100.00;99179.97;5837742;24;20095;-84
2023/10/27 08:42:36;;;;;;;1.90;0.20;;;10.60;99.90;;;9.43;100.00;99182.78;5900821;24;20013;-86
2023/10/27 08:48:00;;;;;;;;;;;10.60;99.90;;;9.43;100.00;99182.78;5882117;24;20065;-85
2023/10/27 08:53:17;;;;;;;0.40;0.20;;;;;;;9.40;100.00;99180.38;5863316;23;19911;-85
2023/10/27 08:56:03;;;;;;;0.60;0.20;;;10.60;99.90;;;9.41;100.00;99181.19;5873197;24;20448;-84
2023/10/27 08:58:55;;;;;;;0.65;0.20;;;10.60;99.90;;;9.44;100.00;99186.28;5884113;24;20016;-83
2023/10/27 09:01:21;;;;;;;0.30;0.30;;;10.60;99.90;;;9.47;100.00;99185.22;5715241;24;20690;-84
2023/10/27 09:04:29;;;;;;;0.30;0.22;;;10.60;99.90;;;9.48;100.00;99182.50;5826066;23;20108;-85
2023/10/27 09:06:56;;;;;;;0.40;0.20;;;;;;;9.47;100.00;99191.31;5961046;23;20470;-85
2023/10/27 09:09:22;;;;;;;0.55;0.20;;;;;;;9.42;100.00;99185.53;5998050;23;20018;-84
2023/10/27 09:11:57;;;;;;;1.08;0.30;;;;;;;9.42;100.00;99188.16;5966820;23;20015;-84
2023/10/27 09:14:37;;;;;;;0.60;0.30;;;;;;;9.42;100.00;99193.41;5972830;23;20037;-84
2023/10/27 09:17:31;;;;;;;0.20;0.20;;;;;;;9.43;100.00;99193.28;5995877;23;20019;-84
2023/10/27 09:20:43;;;;;;;0.20;0.20;;;;;;;9.49;100.00;99189.44;5919706;23;20016;-84
2023/10/27 09:23:09;;;;;;;0.88;0.38;;;;;;;9.44;100.00;99186.28;5955847;23;20367;-84
2023/10/27 09:25:38;;;;;;;0.60;0.30;;;;;;;9.48;100.00;99189.53;5996707;23;20016;-85
2023/10/27 09:28:14;;;;;;;2.53;0.40;;;10.70;99.90;;;9.48;100.00;99194.78;5981816;23;20349;-83
2023/10/27 09:30:42;;;;;;;0.63;0.32;;;10.70;99.90;;;9.47;100.00;99199.19;5946354;23;20094;-85
2023/10/27 09:33:36;;;;;;;0.38;0.30;;;;;;;9.43;100.00;99193.28;5954158;23;20019;-85
2023/10/27 09:36:28;;;;;;;3.85;0.50;;;;;;;9.41;100.00;99197.81;5964753;23;20054;-84
2023/10/27 09:38:57;;;;;;;2.70;0.50;;;10.60;99.90;;;9.41;100.00;99192.53;5900862;23;20016;-84
2023/10/27 09:45:31;;;;;;;2.38;0.40;;;10.70;99.90;;;9.49;100.00;99196.47;5809957;24;20024;-84
2023/10/27 09:48:29;;;;;;;1.25;0.40;;;10.70;99.90;;;9.52;100.00;99193.63;5779244;24;20696;-84
2023/10/27 09:51:11;;;;;;;0.57;0.43;;;10.70;99.90;;;9.56;100.00;99201.19;5771437;24;20641;-84
2023/10/27 09:54:05;;;;;;;0.45;0.38;;;10.80;99.90;;;9.62;100.00;99195.53;5758088;24;20085;-85
2023/10/27 09:57:14;;;;;;;;;;;;;;;;;;;;;
2023/10/27 09:59:47;;;;;;;1.10;0.50;;;;;;;9.68;100.00;99188.22;5851926;24;20053;-84
2023/10/27 10:02:36;;;;;;;0.98;0.40;;;;;;;9.73;100.00;99188.72;5855289;24;20449;-84
2023/10/27 10:05:09;;;;;;;1.52;0.47;;;;;;;9.79;100.00;99190.94;5813878;24;20036;-85
2023/10/27 10:08:11;;;;;;;1.48;0.50;;;11.00;99.90;;;9.89;100.00;99189.34;5841365;24;20491;-85
2023/10/27 10:10:41;;;;;;;0.47;0.30;;;;;;;9.95;100.00;99194.19;5792935;24;20015;-85
2023/10/27 10:13:36;;;;;;;0.93;0.50;;;11.10;99.90;;;10.03;100.00;99189.25;5760500;24;20022;-84
2023/10/27 10:16:09;;;;;;;0.20;0.20;;;11.20;99.90;;;10.09;100.00;99189.81;5652089;24;20075;-85
2023/10/27 10:19:09;;;;;;;;;;;;;;;;;;;;;
2023/10/27 10:21:40;;;;;;;2.30;0.30;;;;;;;10.03;100.00;99186.63;5717697;24;20639;-85
2023/10/27 10:24:17;;;;;;;1.48;0.30;;;11.20;99.90;;;9.98;100.00;99178.22;5846486;23;20022;-84
2023/10/27 10:27:10;;;;;;;0.98;0.20;;;11.20;99.90;;;10.01;100.00;99190.31;5961967;23;20034;-85
2023/10/27 10:29:40;;;;;;;3.72;0.28;;;;;;;9.98;100.00;99193.16;6023160;23;20090;-85
2023/10/27 10:32:43;;;;;;;1.98;0.30;;;11.20;99.90;;;9.92;100.00;99180.44;6029339;23;20022;-86
2023/10/27 10:35:28;;;;;;;0.43;0.30;;;11.10;99.90;;;9.88;100.00;99194.72;5948426;23;20204;-87
2023/10/27 10:38:40;;;;;;;0.98;0.40;;;11.10;99.90;;;9.87;100.00;99191.28;5983635;23;20113;-86
2023/10/27 10:44:22;;;;;;;1.77;0.45;;;;;;;9.79;100.00;99191.78;5905479;24;20060;-85
2023/10/27 10:47:00;;;;;;;1.38;0.73;;;;;;;9.83;100.00;99187.16;5852174;24;20416;-86
2023/10/27 10:49:37;;;;;;;0.80;0.60;;;11.00;99.90;;;9.80;100.00;99182.09;5876910;24;20073;-85
2023/10/27 10:52:07;;;;;;;2.35;1.10;;;;;;;9.79;100.00;99185.69;5841313;24;20021;-86
2023/10/27 10:54:39;;;;;;;3.72;1.85;;;;;;;9.78;100.00;99195.38;5870623;24;20469;-85
2023/10/27 10:57:09;;;;;;;2.35;0.65;;;;;;;9.82;100.00;99201.25;5870827;24;20104;-85
2023/10/27 11:02:41;;;;;;;;;;;;;;;;;;;;;
2023/10/27 11:06:09;;;;;;;0.90;0.38;;;10.90;99.90;;;9.55;100.00;99199.53;5826024;24;20092;-86
2023/10/27 11:09:27;;;;;;;0.70;0.38;;;;;;;9.43;100.00;99201.16;5783945;24;20015;-87
2023/10/27 11:12:25;;;;;;;0.75;0.35;;;;;;;9.29;100.00;99195.13;5724840;24;20079;-87
2023/10/27 11:15:03;;;;;;;1.63;0.40;;;10.50;99.90;;;9.26;100.00;99188.31;5729407;24;20119;-85
2023/10/27 11:18:08;;;;;;;2.10;0.35;;;;;;;9.20;100.00;99186.06;5724725;24;20496;-86
2023/10/27 11:20:48;;;;;;;2.92;0.40;;;10.40;99.90;;;9.07;100.00;99185.19;5785966;24;20032;-86